CAJ7 weather

Cayley A J Flying Ranch Airport
Cayley, Alberta, Canada

Public forecast

Using degrees Celsius for public forecast. Weather courtesy of forecast.io.

Closest aviation weather report (METAR) to Cayley A J Flying Ranch Airport

Closest report is Calgary International Airport, 41.2 nm (76.2 km) NNW. Retrieved 2019/11/22 01:00 UTC (14 minutes ago):

CYYC 220100Z VRB02KT 25SM SKC M01/M04 A2983 RMK SLP156

Closest aviation forecast (TAF) to Cayley A J Flying Ranch Airport

Closest forecast is Calgary International Airport, 41.2 nm (76.2 km) NNW. Retrieved 2019-11-22 00:42 UTC (32 minutes ago):

TAF CYYC 212338Z 2200/2224 VRB03KT P6SM FEW090 BECMG 2201/2203 29006KT BECMG 2213/2215 32012KT RMK NXT FCST BY 220300Z